Time;durP1;ratioP1;P1;durP2;ratioP2;P2;SDS_P1;SDS_P2;PMS_P1;PMS_P2;Temp;Humidity;BMP_temperature;BMP_pressure;BME280_temperature;BME280_humidity;BME280_pressure;Samples;Min_cycle;Max_cycle;Signal;HPM_P1;HPM_P2
2022/04/15 00:01:41;;;;;;;1.48;1.33;;;16.00;99.90;;;;;;7407649;19;20146;-78
2022/04/15 00:04:07;;;;;;;1.83;1.42;;;16.10;99.90;;;;;;7418407;19;20158;-81
2022/04/15 00:06:33;;;;;;;2.83;1.50;;;16.20;99.90;;;;;;7409068;19;20153;-79
2022/04/15 00:08:59;;;;;;;2.00;1.25;;;16.20;99.90;;;;;;7401725;19;20217;-80
2022/04/15 00:11:25;;;;;;;1.85;1.42;;;16.30;99.90;;;;;;7405223;19;20515;-78
2022/04/15 00:13:51;;;;;;;4.10;1.40;;;16.30;99.90;;;;;;7402487;19;20138;-80
2022/04/15 00:16:18;;;;;;;1.88;1.17;;;16.20;99.90;;;;;;7401640;19;20134;-80
2022/04/15 00:18:44;;;;;;;2.15;1.30;;;16.30;99.90;;;;;;7401456;19;20218;-79
2022/04/15 00:21:10;;;;;;;2.25;1.48;;;16.30;99.90;;;;;;7406904;19;20123;-79
2022/04/15 00:23:36;;;;;;;2.08;1.35;;;16.40;99.90;;;;;;7419234;19;20131;-79
2022/04/15 00:26:03;;;;;;;2.20;1.50;;;16.40;99.90;;;;;;7402866;19;20472;-82
2022/04/15 00:28:29;;;;;;;2.35;1.30;;;16.30;99.90;;;;;;7403339;19;20143;-79
2022/04/15 00:30:55;;;;;;;2.03;1.48;;;16.30;99.90;;;;;;7401772;19;20137;-80
2022/04/15 00:33:23;;;;;;;2.55;1.20;;;16.40;99.90;;;;;;7400475;19;20133;-80
2022/04/15 00:35:50;;;;;;;4.50;1.60;;;16.20;99.90;;;;;;7400639;19;20129;-79
2022/04/15 00:38:16;;;;;;;3.13;1.50;;;16.10;99.90;;;;;;7401903;19;20561;-80
2022/04/15 00:40:45;;;;;;;1.80;1.20;;;16.10;99.90;;;;;;7400758;19;20150;-81
2022/04/15 00:43:11;;;;;;;3.42;1.40;;;16.00;99.90;;;;;;7407766;19;20202;-81
2022/04/15 00:45:37;;;;;;;3.30;1.30;;;16.00;99.90;;;;;;7410638;19;20160;-80
2022/04/15 00:48:03;;;;;;;1.83;1.30;;;16.10;99.90;;;;;;7402682;19;20135;-80
2022/04/15 00:50:32;;;;;;;1.63;1.20;;;16.00;99.90;;;;;;7401769;19;20617;-80
2022/04/15 00:53:00;;;;;;;1.70;1.35;;;16.20;99.90;;;;;;7393561;19;20512;-80
2022/04/15 00:55:28;;;;;;;1.98;1.55;;;16.10;99.90;;;;;;7395533;19;20829;-81
2022/04/15 00:57:58;;;;;;;2.15;1.40;;;16.00;99.90;;;;;;7396120;19;20172;-80
2022/04/15 01:00:27;;;;;;;3.42;1.42;;;15.90;99.90;;;;;;7404911;19;20158;-79
2022/04/15 01:02:56;;;;;;;1.60;1.20;;;15.90;99.90;;;;;;7402280;19;20567;-78
2022/04/15 01:05:22;;;;;;;2.17;1.50;;;15.90;99.90;;;;;;7393893;19;20139;-80
2022/04/15 01:07:50;;;;;;;3.03;1.55;;;16.00;99.90;;;;;;7390843;19;20493;-80
2022/04/15 01:10:18;;;;;;;4.15;1.50;;;16.00;99.90;;;;;;7394335;19;20693;-80
2022/04/15 01:12:46;;;;;;;4.40;1.40;;;16.00;99.90;;;;;;7396317;19;20158;-81
2022/04/15 01:15:13;;;;;;;1.70;1.42;;;16.00;99.90;;;;;;7393235;19;20151;-81
2022/04/15 01:17:40;;;;;;;3.80;1.60;;;15.90;99.90;;;;;;7392214;19;20483;-80
2022/04/15 01:20:08;;;;;;;3.17;1.20;;;15.80;99.90;;;;;;7392371;19;20130;-82
2022/04/15 01:22:41;;;;;;;1.92;1.52;;;15.90;99.90;;;;;;7391191;19;20142;-80
2022/04/15 01:25:13;;;;;;;3.47;1.73;;;15.80;99.90;;;;;;7390596;19;20153;-81
2022/04/15 01:27:44;;;;;;;2.95;1.40;;;15.70;99.90;;;;;;7400817;19;20143;-79
2022/04/15 01:30:13;;;;;;;1.85;1.45;;;15.70;99.90;;;;;;7417574;19;20149;-80
2022/04/15 01:32:39;;;;;;;2.72;1.40;;;15.80;99.90;;;;;;7392664;19;20126;-80
2022/04/15 01:35:08;;;;;;;2.65;1.42;;;15.90;99.90;;;;;;7390707;19;20159;-79
2022/04/15 01:37:35;;;;;;;2.25;1.48;;;15.90;99.90;;;;;;7389318;19;20803;-78
2022/04/15 01:40:03;;;;;;;1.40;1.30;;;15.80;99.90;;;;;;7389254;19;20129;-80
2022/04/15 01:42:29;;;;;;;1.73;1.30;;;15.80;99.90;;;;;;7390628;19;20139;-79
2022/04/15 01:44:55;;;;;;;3.78;1.38;;;15.80;99.90;;;;;;7390039;19;20166;-81
2022/04/15 01:47:20;;;;;;;1.67;1.50;;;15.80;99.90;;;;;;7390950;19;20146;-79
2022/04/15 01:49:46;;;;;;;2.40;1.40;;;15.70;99.90;;;;;;7391445;19;20139;-81
2022/04/15 01:52:15;;;;;;;2.83;1.30;;;15.70;99.90;;;;;;7405622;19;20306;-81
2022/04/15 01:54:41;;;;;;;1.42;1.33;;;15.70;99.90;;;;;;7392273;19;20131;-79
2022/04/15 01:57:07;;;;;;;2.65;1.70;;;15.70;99.90;;;;;;7390021;19;20517;-80
2022/04/15 01:59:32;;;;;;;2.53;1.60;;;15.60;99.90;;;;;;7392910;19;20145;-80
2022/04/15 02:01:58;;;;;;;1.75;1.42;;;15.30;99.90;;;;;;7391001;19;20154;-80
2022/04/15 02:04:27;;;;;;;1.27;1.17;;;15.30;99.90;;;;;;7389660;19;20146;-80
2022/04/15 02:06:53;;;;;;;1.92;1.60;;;15.10;99.90;;;;;;7389881;19;20170;-82
2022/04/15 02:09:20;;;;;;;2.28;1.60;;;15.30;99.90;;;;;;7394268;19;20218;-81
2022/04/15 02:11:47;;;;;;;2.72;1.27;;;15.40;99.90;;;;;;7404415;19;20134;-80
2022/04/15 02:14:13;;;;;;;3.22;1.50;;;15.40;99.90;;;;;;7402793;19;20134;-79
2022/04/15 02:16:40;;;;;;;1.45;1.27;;;15.50;99.90;;;;;;7389370;19;20578;-79
2022/04/15 02:19:06;;;;;;;2.25;1.10;;;15.60;99.90;;;;;;7389798;19;20138;-80
2022/04/15 02:21:32;;;;;;;3.05;1.60;;;15.60;99.90;;;;;;7391221;19;20209;-80
2022/04/15 02:23:58;;;;;;;3.45;1.63;;;15.40;99.90;;;;;;7390096;19;20133;-79
2022/04/15 02:26:24;;;;;;;1.92;1.30;;;15.50;99.90;;;;;;7390367;19;20137;-79
2022/04/15 02:28:50;;;;;;;1.75;1.08;;;15.40;99.90;;;;;;7388460;19;20170;-80
2022/04/15 02:31:16;;;;;;;1.92;1.48;;;15.50;99.90;;;;;;7400230;19;20126;-80
2022/04/15 02:33:41;;;;;;;2.47;1.60;;;15.50;99.90;;;;;;7413713;19;20154;-79
2022/04/15 02:36:07;;;;;;;1.50;1.40;;;15.60;99.90;;;;;;7394187;19;20622;-80
2022/04/15 02:38:33;;;;;;;2.30;1.67;;;15.60;99.90;;;;;;7389035;19;20138;-80
2022/04/15 02:41:01;;;;;;;1.85;1.40;;;15.60;99.90;;;;;;7387370;19;20546;-79
2022/04/15 02:43:31;;;;;;;3.85;1.50;;;15.60;99.90;;;;;;7390437;19;20168;-79
2022/04/15 02:46:02;;;;;;;2.88;1.58;;;15.60;99.90;;;;;;7390225;19;20134;-79
2022/04/15 02:48:29;;;;;;;2.08;1.88;;;15.70;99.90;;;;;;7388978;19;20147;-80
2022/04/15 02:50:55;;;;;;;1.92;1.30;;;15.70;99.90;;;;;;7389975;19;20130;-78
2022/04/15 02:53:24;;;;;;;2.95;1.70;;;15.80;99.90;;;;;;7397553;19;20531;-79
2022/04/15 02:55:50;;;;;;;2.20;1.40;;;15.70;99.90;;;;;;7404146;19;20130;-79
2022/04/15 02:58:16;;;;;;;2.78;1.45;;;15.60;99.90;;;;;;7393606;19;20130;-80
2022/04/15 03:00:42;;;;;;;1.67;1.50;;;15.50;99.90;;;;;;7393585;19;20504;-79
2022/04/15 03:03:08;;;;;;;2.35;1.48;;;15.40;99.90;;;;;;7393387;19;20152;-80
2022/04/15 03:05:34;;;;;;;2.92;1.67;;;15.40;99.90;;;;;;7388948;19;20247;-79
2022/04/15 03:08:00;;;;;;;2.00;1.38;;;15.30;99.90;;;;;;7389460;19;20130;-79
2022/04/15 03:10:26;;;;;;;2.65;1.67;;;15.20;99.90;;;;;;7389165;19;20134;-80
2022/04/15 03:12:51;;;;;;;2.60;1.50;;;15.20;99.90;;;;;;7388840;19;20646;-81
2022/04/15 03:15:17;;;;;;;2.13;1.70;;;15.20;99.90;;;;;;7391044;19;20130;-81
2022/04/15 03:17:43;;;;;;;2.42;1.95;;;15.10;99.90;;;;;;7399127;19;20131;-80
2022/04/15 03:20:10;;;;;;;1.40;1.30;;;15.20;99.90;;;;;;7395174;19;20141;-80
2022/04/15 03:22:37;;;;;;;3.22;1.70;;;15.20;99.90;;;;;;7386515;19;20142;-80
2022/04/15 03:25:04;;;;;;;3.03;1.60;;;15.20;99.90;;;;;;7387523;19;20127;-80
2022/04/15 03:27:30;;;;;;;2.97;1.67;;;15.20;99.90;;;;;;7389397;19;20875;-79
2022/04/15 03:29:56;;;;;;;2.35;1.83;;;15.30;99.90;;;;;;7385052;19;20185;-79
2022/04/15 03:32:21;;;;;;;3.15;1.52;;;15.30;99.90;;;;;;7386813;19;20158;-78
2022/04/15 03:34:47;;;;;;;2.58;1.60;;;15.20;99.90;;;;;;7389709;19;20512;-79
2022/04/15 03:37:13;;;;;;;3.33;1.80;;;15.10;99.90;;;;;;7394536;19;20134;-80
2022/04/15 03:39:39;;;;;;;2.45;1.88;;;15.10;99.90;;;;;;7395889;19;20598;-79
2022/04/15 03:42:07;;;;;;;5.35;2.85;;;15.10;99.90;;;;;;7386819;19;20173;-80
2022/04/15 03:44:33;;;;;;;4.78;2.92;;;15.20;99.90;;;;;;7388113;19;20138;-80
2022/04/15 03:46:58;;;;;;;4.25;2.60;;;14.90;99.90;;;;;;7386422;19;20146;-80
2022/04/15 03:49:24;;;;;;;2.88;2.20;;;14.70;99.90;;;;;;7386461;19;20170;-80
2022/04/15 03:51:50;;;;;;;2.83;1.92;;;14.70;99.90;;;;;;7386621;19;20134;-79
2022/04/15 03:54:16;;;;;;;4.95;2.20;;;14.60;99.90;;;;;;7385276;19;20154;-81
2022/04/15 03:56:42;;;;;;;3.65;1.92;;;14.60;99.90;;;;;;7387816;19;20131;-80
2022/04/15 03:59:10;;;;;;;3.28;2.20;;;14.70;99.90;;;;;;7395544;19;20586;-80
2022/04/15 04:01:36;;;;;;;3.50;2.20;;;14.70;99.90;;;;;;7394128;19;20130;-79
2022/04/15 04:04:02;;;;;;;2.85;1.60;;;14.60;99.90;;;;;;7386438;19;20133;-79
2022/04/15 04:06:28;;;;;;;2.85;2.08;;;14.80;99.90;;;;;;7385222;19;20135;-79
2022/04/15 04:08:54;;;;;;;4.03;2.08;;;14.70;99.90;;;;;;7386294;19;20123;-80
2022/04/15 04:11:21;;;;;;;2.90;2.05;;;14.70;99.90;;;;;;7387805;19;20127;-80
2022/04/15 04:13:47;;;;;;;3.05;2.10;;;14.50;99.90;;;;;;7386868;19;20138;-80
2022/04/15 04:16:13;;;;;;;2.80;1.85;;;14.50;99.90;;;;;;7388320;19;20130;-80
2022/04/15 04:18:41;;;;;;;3.03;1.80;;;14.50;99.90;;;;;;7393405;19;20139;-81
2022/04/15 04:21:08;;;;;;;2.50;1.98;;;14.40;99.90;;;;;;7395089;19;20504;-80
2022/04/15 04:23:34;;;;;;;2.80;2.13;;;14.60;99.90;;;;;;7399862;19;20143;-80
2022/04/15 04:26:01;;;;;;;3.17;1.98;;;14.30;99.90;;;;;;7385063;19;20139;-79
2022/04/15 04:28:27;;;;;;;2.50;1.95;;;14.30;99.90;;;;;;7392879;19;20202;-80
2022/04/15 04:30:53;;;;;;;2.70;2.33;;;14.30;99.90;;;;;;7394640;19;20130;-80
2022/04/15 04:33:20;;;;;;;3.08;2.10;;;13.90;99.90;;;;;;7394120;19;20209;-79
2022/04/15 04:35:46;;;;;;;3.38;2.20;;;14.00;99.90;;;;;;7393396;19;20147;-79
2022/04/15 04:38:12;;;;;;;4.85;2.03;;;13.80;99.90;;;;;;7393416;19;20170;-80
2022/04/15 04:40:38;;;;;;;3.28;2.17;;;13.70;99.90;;;;;;7393572;19;20162;-80
2022/04/15 04:43:05;;;;;;;2.42;1.85;;;13.50;99.90;;;;;;7405592;19;20135;-81
2022/04/15 04:45:32;;;;;;;2.53;2.20;;;13.70;99.90;;;;;;7393836;19;20201;-79
2022/04/15 04:48:00;;;;;;;3.65;2.00;;;13.80;99.90;;;;;;7400094;19;20131;-79
2022/04/15 04:50:28;;;;;;;4.70;2.50;;;13.80;99.90;;;;;;7392216;19;20641;-79
2022/04/15 04:52:54;;;;;;;2.28;2.00;;;13.90;99.90;;;;;;7394562;19;20138;-80
2022/04/15 04:55:20;;;;;;;3.03;1.70;;;14.10;99.90;;;;;;7393890;19;20487;-79
2022/04/15 04:57:46;;;;;;;2.47;1.80;;;14.30;99.90;;;;;;7391634;19;20568;-80
2022/04/15 05:00:13;;;;;;;4.38;2.20;;;14.10;99.90;;;;;;7395073;19;20142;-79
2022/04/15 05:02:40;;;;;;;3.00;1.83;;;14.10;99.90;;;;;;7395694;19;20630;-79
2022/04/15 05:05:06;;;;;;;2.67;2.00;;;14.20;99.90;;;;;;7401781;19;20135;-80
2022/04/15 05:07:32;;;;;;;3.38;1.80;;;14.20;99.90;;;;;;7400281;19;20158;-81
2022/04/15 05:09:58;;;;;;;2.17;1.95;;;14.00;99.90;;;;;;7395664;19;20577;-80
2022/04/15 05:12:24;;;;;;;3.40;1.90;;;14.20;99.90;;;;;;7392921;19;20139;-80
2022/04/15 05:14:50;;;;;;;2.90;2.03;;;14.20;99.90;;;;;;7391293;19;20142;-81
2022/04/15 05:17:16;;;;;;;2.70;2.10;;;14.20;99.90;;;;;;7392862;19;20131;-81
2022/04/15 05:19:45;;;;;;;2.10;1.90;;;14.20;99.90;;;;;;7393367;19;20534;-80
2022/04/15 05:22:12;;;;;;;2.08;1.88;;;14.10;99.90;;;;;;7392833;19;20133;-81
2022/04/15 05:24:38;;;;;;;3.75;2.40;;;14.30;99.90;;;;;;7390983;19;20147;-80
2022/04/15 05:27:05;;;;;;;5.22;2.15;;;14.50;99.90;;;;;;7393035;19;20207;-80
2022/04/15 05:29:31;;;;;;;3.28;2.25;;;14.70;99.90;;;;;;7408388;19;20199;-80
2022/04/15 05:31:56;;;;;;;2.55;2.22;;;14.90;99.90;;;;;;7404278;19;20131;-79
2022/04/15 05:34:22;;;;;;;3.17;1.95;;;15.10;99.90;;;;;;7394706;19;20127;-79
2022/04/15 05:36:51;;;;;;;2.72;2.08;;;15.00;99.90;;;;;;7390146;19;20142;-80
2022/04/15 05:39:17;;;;;;;4.43;2.60;;;15.10;99.90;;;;;;7389233;19;20142;-80
2022/04/15 05:41:44;;;;;;;3.03;2.47;;;15.10;99.90;;;;;;7390758;19;20258;-79
2022/04/15 05:44:12;;;;;;;5.75;2.83;;;15.00;99.90;;;;;;7391155;19;20138;-80
2022/04/15 05:46:39;;;;;;;4.43;2.58;;;15.00;99.90;;;;;;7391369;19;20502;-81
2022/04/15 05:49:13;;;;;;;3.42;2.30;;;14.50;99.90;;;;;;7393329;19;20131;-81
2022/04/15 05:51:45;;;;;;;4.18;2.30;;;14.80;99.90;;;;;;7409565;19;20193;-80
2022/04/15 05:54:14;;;;;;;2.63;2.10;;;14.90;99.90;;;;;;7393266;19;20131;-79
2022/04/15 05:56:39;;;;;;;2.58;2.25;;;14.90;99.90;;;;;;7395826;19;20126;-81
2022/04/15 05:59:11;;;;;;;3.78;2.28;;;15.00;99.90;;;;;;7394308;19;20466;-79
2022/04/15 06:01:37;;;;;;;3.05;2.33;;;15.10;99.90;;;;;;7391197;19;20627;-80
2022/04/15 06:04:06;;;;;;;2.72;2.30;;;15.20;99.90;;;;;;7393677;19;20158;-83
2022/04/15 06:06:38;;;;;;;3.40;2.25;;;15.10;99.90;;;;;;7390716;19;20162;-82
2022/04/15 06:09:09;;;;;;;4.07;2.38;;;15.10;99.90;;;;;;7397256;19;20147;-80
2022/04/15 06:11:37;;;;;;;3.72;2.40;;;15.20;99.90;;;;;;7393780;19;20131;-80
2022/04/15 06:14:06;;;;;;;3.38;2.70;;;15.30;99.90;;;;;;7393236;19;20155;-80
2022/04/15 06:16:32;;;;;;;3.10;2.60;;;15.30;99.90;;;;;;7390962;19;20139;-81
2022/04/15 06:19:16;;;;;;;3.17;2.53;;;15.40;99.90;;;;;;7392787;19;20242;-78
2022/04/15 06:21:43;;;;;;;3.90;2.78;;;15.40;99.90;;;;;;7393368;19;20142;-82
2022/04/15 06:24:08;;;;;;;3.10;2.60;;;15.50;99.90;;;;;;7391173;19;20131;-82
2022/04/15 06:27:19;;;;;;;4.72;2.58;;;15.50;99.90;;;;;;7391671;19;20141;-87
2022/04/15 06:29:45;;;;;;;3.30;2.80;;;15.40;99.90;;;;;;7392096;19;20178;-79
2022/04/15 06:32:10;;;;;;;3.28;2.67;;;15.20;99.90;;;;;;7399916;19;20552;-83
2022/04/15 06:34:36;;;;;;;3.20;2.40;;;15.50;99.90;;;;;;7391405;19;20126;-83
2022/04/15 06:37:02;;;;;;;3.10;2.63;;;15.50;99.90;;;;;;7393631;19;20131;-76
2022/04/15 06:39:28;;;;;;;4.30;2.30;;;15.10;99.90;;;;;;7395981;19;20123;-81
2022/04/15 06:41:53;;;;;;;3.90;2.90;;;15.30;99.90;;;;;;7391748;19;20165;-80
2022/04/15 06:44:19;;;;;;;3.00;2.60;;;15.20;99.90;;;;;;7389589;19;20458;-80
2022/04/15 06:46:45;;;;;;;4.95;2.70;;;15.00;99.90;;;;;;7388187;19;20519;-80
2022/04/15 06:49:11;;;;;;;4.18;3.30;;;15.20;99.90;;;;;;7392015;19;20134;-79
2022/04/15 06:51:36;;;;;;;5.55;3.00;;;15.40;99.90;;;;;;7390760;19;20162;-78
2022/04/15 06:54:06;;;;;;;3.88;3.03;;;15.60;99.90;;;;;;7407763;19;20148;-80
2022/04/15 06:56:32;;;;;;;6.00;3.83;;;15.90;99.90;;;;;;7391899;19;20483;-78
2022/04/15 06:58:58;;;;;;;8.35;4.57;;;16.00;99.90;;;;;;7392757;19;20146;-75
2022/04/15 07:01:24;;;;;;;5.97;4.35;;;15.70;99.90;;;;;;7387383;19;20610;-76
2022/04/15 07:03:54;;;;;;;8.75;4.82;;;15.80;99.90;;;;;;7392417;19;20134;-77
2022/04/15 07:06:22;;;;;;;6.60;4.22;;;15.90;99.90;;;;;;7387055;19;20194;-76
2022/04/15 07:08:50;;;;;;;5.65;4.47;;;16.10;99.90;;;;;;7389280;19;20138;-81
2022/04/15 07:11:16;;;;;;;6.10;4.40;;;16.20;99.90;;;;;;7391608;19;21062;-82
2022/04/15 07:13:41;;;;;;;5.88;4.65;;;16.10;99.90;;;;;;7396885;19;20142;-77
2022/04/15 07:16:07;;;;;;;8.10;5.20;;;16.70;99.90;;;;;;7400066;19;20127;-77
2022/04/15 07:18:34;;;;;;;7.88;5.60;;;17.00;99.90;;;;;;7395365;19;20142;-80
2022/04/15 07:21:03;;;;;;;8.30;6.05;;;17.60;99.90;;;;;;7386825;19;20142;-76
2022/04/15 07:23:29;;;;;;;7.63;4.93;;;18.20;99.90;;;;;;7386698;19;20235;-80
2022/04/15 07:25:57;;;;;;;6.68;4.43;;;18.80;99.90;;;;;;7394349;19;20171;-76
2022/04/15 07:28:23;;;;;;;6.72;4.70;;;19.20;99.90;;;;;;7391217;19;20186;-77
2022/04/15 07:30:49;;;;;;;6.18;4.68;;;19.00;99.90;;;;;;7388980;19;20150;-81
2022/04/15 07:33:16;;;;;;;8.43;5.30;;;19.40;99.90;;;;;;7386869;19;20625;-78
2022/04/15 07:35:42;;;;;;;8.48;5.15;;;19.50;99.90;;;;;;7390400;19;20169;-78
2022/04/15 07:38:08;;;;;;;8.02;5.43;;;19.70;99.90;;;;;;7386413;19;20131;-77
2022/04/15 07:40:33;;;;;;;7.30;5.28;;;19.50;99.90;;;;;;7397016;19;20179;-75
2022/04/15 07:42:59;;;;;;;8.60;5.00;;;19.50;99.90;;;;;;7387442;19;20138;-80
2022/04/15 07:45:25;;;;;;;9.07;5.53;;;19.70;99.90;;;;;;7392165;19;20142;-76
2022/04/15 07:47:51;;;;;;;7.72;5.22;;;20.10;99.90;;;;;;7393270;19;20138;-75
2022/04/15 07:50:22;;;;;;;7.35;5.40;;;20.50;99.90;;;;;;7391423;19;20605;-77
2022/04/15 07:52:48;;;;;;;8.45;5.47;;;20.70;99.90;;;;;;7388258;19;20211;-81
2022/04/15 07:55:16;;;;;;;7.47;5.93;;;20.60;99.90;;;;;;7387513;19;20123;-76
2022/04/15 07:57:43;;;;;;;7.95;6.00;;;20.50;99.90;;;;;;7390230;19;20569;-77
2022/04/15 08:00:11;;;;;;;7.50;6.00;;;20.70;99.90;;;;;;7406887;19;20139;-76
2022/04/15 08:02:37;;;;;;;8.80;6.65;;;20.90;99.90;;;;;;7393868;19;20594;-78
2022/04/15 08:05:04;;;;;;;8.52;6.65;;;20.60;99.90;;;;;;7394832;19;20134;-79
2022/04/15 08:07:30;;;;;;;9.27;6.43;;;20.40;99.90;;;;;;7399366;19;20127;-75
2022/04/15 08:09:56;;;;;;;9.98;7.18;;;20.40;99.90;;;;;;7398770;19;20143;-75
2022/04/15 08:12:22;;;;;;;8.70;7.13;;;20.10;99.90;;;;;;7396372;19;20141;-74
2022/04/15 08:14:48;;;;;;;8.68;7.07;;;19.90;99.90;;;;;;7394800;19;20214;-78
2022/04/15 08:17:14;;;;;;;9.10;7.22;;;19.90;99.90;;;;;;7394309;19;20126;-75
2022/04/15 08:19:40;;;;;;;8.82;6.47;;;19.90;99.90;;;;;;7400822;19;20147;-79
2022/04/15 08:22:09;;;;;;;9.38;7.38;;;20.20;99.90;;;;;;7405122;19;20142;-75
2022/04/15 08:24:42;;;;;;;10.10;6.70;;;20.60;99.90;;;;;;7398590;19;20142;-79
2022/04/15 08:27:11;;;;;;;9.65;6.78;;;20.60;99.90;;;;;;7394273;19;20135;-78
2022/04/15 08:29:38;;;;;;;8.25;6.72;;;20.60;99.90;;;;;;7398137;19;20211;-79
2022/04/15 08:32:10;;;;;;;8.38;6.60;;;20.50;99.90;;;;;;7397321;19;20158;-80
2022/04/15 08:34:37;;;;;;;10.32;7.38;;;20.50;99.90;;;;;;7395010;19;20138;-79
2022/04/15 08:37:03;;;;;;;8.80;7.18;;;20.40;99.90;;;;;;7397598;19;20147;-76
2022/04/15 08:39:29;;;;;;;10.75;7.90;;;20.30;99.90;;;;;;7399479;19;20626;-75
2022/04/15 08:41:57;;;;;;;9.35;7.53;;;20.00;99.90;;;;;;7400527;19;20170;-79
2022/04/15 08:44:24;;;;;;;9.77;7.70;;;19.80;99.90;;;;;;7390265;19;20147;-76
2022/04/15 08:46:51;;;;;;;13.82;9.57;;;19.60;99.90;;;;;;7387736;19;20183;-77
2022/04/15 08:49:19;;;;;;;11.95;8.25;;;19.50;99.90;;;;;;7390825;19;20150;-81
2022/04/15 08:51:49;;;;;;;12.63;9.02;;;19.50;99.90;;;;;;7391389;19;20134;-79
2022/04/15 08:54:18;;;;;;;11.88;9.20;;;19.50;99.90;;;;;;7390956;19;20138;-74
2022/04/15 08:56:44;;;;;;;9.82;7.63;;;19.50;99.90;;;;;;7393107;19;20926;-81
2022/04/15 08:59:10;;;;;;;11.77;9.65;;;19.60;99.90;;;;;;7392818;19;20130;-76
2022/04/15 09:01:36;;;;;;;10.30;8.60;;;19.50;99.90;;;;;;7395587;19;20538;-75
2022/04/15 09:04:03;;;;;;;12.25;8.63;;;19.70;99.90;;;;;;7402119;19;20154;-78
2022/04/15 09:06:32;;;;;;;11.98;8.70;;;19.80;99.90;;;;;;7396057;19;20142;-78
2022/04/15 09:09:16;;;;;;;12.18;10.20;;;19.70;99.90;;;;;;7395366;19;20173;-79
2022/04/15 09:11:47;;;;;;;10.57;9.35;;;19.60;99.90;;;;;;7391742;19;20131;-71
2022/04/15 09:14:14;;;;;;;13.02;9.57;;;19.50;99.90;;;;;;7392102;19;20146;-69
2022/04/15 09:16:45;;;;;;;13.77;10.32;;;19.50;99.90;;;;;;7393188;19;20226;-70
2022/04/15 09:19:13;;;;;;;13.75;10.07;;;19.40;99.90;;;;;;7392790;19;20161;-76
2022/04/15 09:21:41;;;;;;;11.20;9.57;;;19.30;99.90;;;;;;7394977;19;20218;-73
2022/04/15 09:24:08;;;;;;;12.57;9.57;;;19.50;99.90;;;;;;7403679;19;20214;-72
2022/04/15 09:26:37;;;;;;;10.07;8.15;;;19.60;99.90;;;;;;7392335;19;20465;-74
2022/04/15 09:29:03;;;;;;;10.65;8.63;;;19.70;99.90;;;;;;7390871;19;20684;-74
2022/04/15 09:31:28;;;;;;;11.82;8.43;;;19.80;99.90;;;;;;7395145;19;20138;-70
2022/04/15 09:34:00;;;;;;;12.27;8.57;;;20.00;99.90;;;;;;7393501;19;20603;-69
2022/04/15 09:36:37;;;;;;;12.27;8.93;;;19.80;99.90;;;;;;7393621;19;20487;-76
2022/04/15 09:39:03;;;;;;;11.15;8.38;;;19.80;99.90;;;;;;7391485;19;20163;-74
2022/04/15 09:41:31;;;;;;;11.05;9.27;;;19.70;99.90;;;;;;7393272;19;20147;-72
2022/04/15 09:44:00;;;;;;;12.98;8.85;;;19.50;99.90;;;;;;7406094;19;20617;-81
2022/04/15 09:46:27;;;;;;;10.73;8.68;;;19.30;99.90;;;;;;7394373;19;20134;-78
2022/04/15 09:49:03;;;;;;;11.18;8.75;;;19.20;99.90;;;;;;7396129;19;20131;-74
2022/04/15 09:51:44;;;;;;;10.43;8.45;;;19.40;99.90;;;;;;7393062;19;20505;-72
2022/04/15 09:54:20;;;;;;;10.02;8.20;;;19.60;99.90;;;;;;7393285;19;20834;-72
2022/04/15 09:56:47;;;;;;;9.57;8.40;;;19.60;99.90;;;;;;7393063;19;20127;-77
2022/04/15 09:59:15;;;;;;;9.75;7.50;;;19.60;99.90;;;;;;7390753;19;20158;-74
2022/04/15 10:01:46;;;;;;;9.93;8.60;;;19.50;99.90;;;;;;7390963;19;20135;-72
2022/04/15 10:04:14;;;;;;;8.50;7.05;;;19.50;99.90;;;;;;7401290;19;20138;-73
2022/04/15 10:06:42;;;;;;;11.38;7.90;;;19.50;99.90;;;;;;7390647;19;20139;-75
2022/04/15 10:09:13;;;;;;;9.50;8.32;;;19.60;99.90;;;;;;7389960;19;20119;-72
2022/04/15 10:11:45;;;;;;;8.90;7.78;;;19.50;99.90;;;;;;7388750;19;20583;-71
2022/04/15 10:14:12;;;;;;;10.05;8.10;;;19.50;99.90;;;;;;7387607;19;20145;-74
2022/04/15 10:16:39;;;;;;;10.10;8.00;;;19.60;99.90;;;;;;7389316;19;20543;-75
2022/04/15 10:19:06;;;;;;;8.55;7.07;;;19.60;99.90;;;;;;7390753;19;20126;-76
2022/04/15 10:21:35;;;;;;;9.40;7.40;;;19.60;99.90;;;;;;7396740;19;20126;-75
2022/04/15 10:24:03;;;;;;;8.07;7.28;;;19.50;99.90;;;;;;7411328;19;20154;-74
2022/04/15 10:26:44;;;;;;;12.27;7.57;;;19.50;99.90;;;;;;7392896;19;20174;-72
2022/04/15 10:29:10;;;;;;;8.90;7.45;;;19.50;99.90;;;;;;7390212;19;20192;-73
2022/04/15 10:31:42;;;;;;;9.98;7.78;;;19.50;99.90;;;;;;7394349;19;20142;-75
2022/04/15 10:34:12;;;;;;;9.27;7.18;;;19.50;99.90;;;;;;7393118;19;20150;-76
2022/04/15 10:36:38;;;;;;;8.90;6.88;;;19.50;99.90;;;;;;7388451;19;20131;-72
2022/04/15 10:39:06;;;;;;;8.57;6.88;;;19.60;99.90;;;;;;7390844;19;20126;-76
2022/04/15 10:41:48;;;;;;;11.82;7.20;;;19.70;99.90;;;;;;7391611;19;20169;-75
2022/04/15 10:44:35;;;;;;;8.25;6.57;;;19.70;99.90;;;;;;7391027;19;20170;-77
2022/04/15 10:47:09;;;;;;;7.65;6.35;;;19.90;99.90;;;;;;7398293;19;20230;-76
2022/04/15 10:49:52;;;;;;;6.85;6.10;;;20.00;99.90;;;;;;7390041;19;20143;-75
2022/04/15 10:52:21;;;;;;;7.38;6.55;;;20.10;99.90;;;;;;7391346;19;20142;-75
2022/04/15 10:54:52;;;;;;;8.55;6.85;;;20.20;99.90;;;;;;7389576;19;20154;-81
2022/04/15 10:57:19;;;;;;;8.40;5.97;;;20.00;99.90;;;;;;7390684;19;20130;-79
2022/04/15 11:02:45;;;;;;;9.55;7.18;;;19.90;99.90;;;;;;7392613;19;20162;-73
2022/04/15 11:05:30;;;;;;;10.25;7.05;;;19.70;99.90;;;;;;7391026;19;20134;-79
2022/04/15 11:08:06;;;;;;;8.32;6.47;;;19.60;99.90;;;;;;7395707;19;20135;-79
2022/04/15 11:10:50;;;;;;;7.35;5.78;;;19.60;99.90;;;;;;7388846;19;20160;-79
2022/04/15 11:13:33;;;;;;;5.38;4.70;;;19.80;99.90;;;;;;7390955;19;20134;-75
2022/04/15 11:16:13;;;;;;;7.15;5.22;;;19.80;99.90;;;;;;7387701;19;20490;-75
2022/04/15 11:19:00;;;;;;;6.70;5.28;;;20.00;99.90;;;;;;7391554;19;20130;-80
2022/04/15 11:21:30;;;;;;;7.28;5.70;;;20.20;99.90;;;;;;7392744;19;20214;-80
2022/04/15 11:24:02;;;;;;;6.15;4.65;;;20.30;99.90;;;;;;7391769;19;20154;-74
2022/04/15 11:26:28;;;;;;;5.90;4.72;;;20.30;99.90;;;;;;7385966;19;20573;-80
2022/04/15 11:28:59;;;;;;;5.50;4.75;;;20.10;99.60;;;;;;7393130;19;20178;-75
2022/04/15 11:31:33;;;;;;;5.97;4.57;;;20.00;99.90;;;;;;7388268;19;20234;-81
2022/04/15 11:34:10;;;;;;;7.30;5.07;;;20.20;99.70;;;;;;7390450;19;20158;-79
2022/04/15 11:36:39;;;;;;;6.00;4.78;;;20.30;99.70;;;;;;7385676;19;20142;-75
2022/04/15 11:39:10;;;;;;;7.22;4.75;;;20.40;99.50;;;;;;7388081;19;20142;-78
2022/04/15 11:41:46;;;;;;;9.32;6.65;;;20.40;99.70;;;;;;7389537;19;20162;-80
2022/04/15 11:44:12;;;;;;;6.10;5.03;;;20.30;99.70;;;;;;7388617;19;20130;-75
2022/04/15 11:46:43;;;;;;;8.13;5.68;;;20.10;99.90;;;;;;7389591;19;20130;-79
2022/04/15 11:49:26;;;;;;;7.13;5.15;;;20.00;99.90;;;;;;7398678;19;20138;-79
2022/04/15 11:51:58;;;;;;;5.57;4.93;;;19.90;99.90;;;;;;7387514;19;20161;-76
2022/04/15 11:54:34;;;;;;;6.88;5.22;;;19.90;99.80;;;;;;7389307;19;20153;-76
2022/04/15 11:57:03;;;;;;;7.10;5.90;;;20.00;99.90;;;;;;7389443;19;20145;-77
2022/04/15 11:59:37;;;;;;;6.60;5.10;;;20.00;99.90;;;;;;7391034;19;20166;-80
2022/04/15 12:02:03;;;;;;;6.72;4.97;;;20.00;99.80;;;;;;7394450;19;20146;-78
2022/04/15 12:04:29;;;;;;;6.88;4.80;;;20.10;99.90;;;;;;7396540;19;20160;-79
2022/04/15 12:06:54;;;;;;;5.93;4.70;;;20.30;99.40;;;;;;7391290;19;20189;-78
2022/04/15 12:09:25;;;;;;;6.05;4.18;;;20.60;99.30;;;;;;7401056;19;20211;-76
2022/04/15 12:11:52;;;;;;;6.10;4.70;;;20.80;98.20;;;;;;7401365;19;20194;-77
2022/04/15 12:14:19;;;;;;;6.18;4.88;;;21.10;97.60;;;;;;7388828;19;20131;-81
2022/04/15 12:16:49;;;;;;;7.05;5.35;;;20.90;97.40;;;;;;7390247;19;20150;-81
2022/04/15 12:19:15;;;;;;;6.25;4.97;;;20.50;97.60;;;;;;7389199;19;20160;-80
2022/04/15 12:21:48;;;;;;;4.85;4.35;;;20.30;98.00;;;;;;7393323;19;20205;-81
2022/04/15 12:24:22;;;;;;;6.38;4.35;;;20.20;98.30;;;;;;7393825;19;20143;-80
2022/04/15 12:26:53;;;;;;;8.57;4.60;;;20.10;98.00;;;;;;7391912;19;20154;-75
2022/04/15 12:32:29;;;;;;;6.97;5.07;;;20.10;98.00;;;;;;7391511;19;20415;-77
2022/04/15 12:34:55;;;;;;;6.45;5.15;;;20.40;97.90;;;;;;7388775;19;20131;-76
2022/04/15 12:37:47;;;;;;;5.30;4.15;;;20.70;97.80;;;;;;7387146;19;20180;-79
2022/04/15 12:40:15;;;;;;;5.35;3.42;;;20.90;97.70;;;;;;7390141;19;20147;-76
2022/04/15 12:42:46;;;;;;;4.80;3.72;;;21.20;97.00;;;;;;7389778;19;20150;-76
2022/04/15 12:45:16;;;;;;;4.22;3.50;;;21.40;95.90;;;;;;7387770;19;20134;-76
2022/04/15 12:47:47;;;;;;;3.53;2.90;;;21.30;95.60;;;;;;7388862;19;20706;-78
2022/04/15 12:50:20;;;;;;;5.30;3.42;;;21.40;96.00;;;;;;7398147;19;20135;-76
2022/04/15 12:52:48;;;;;;;5.38;3.53;;;21.60;96.20;;;;;;7397606;19;20154;-76
2022/04/15 12:55:22;;;;;;;5.40;3.70;;;21.50;95.30;;;;;;7392347;19;20603;-75
2022/04/15 12:57:48;;;;;;;4.22;3.55;;;21.40;95.60;;;;;;7396312;19;20209;-75